La Russell, Missouri
Current Conditions -  °F | °C
As of 1:55 PM on Thursday 30 Oct 2014 (Local Time) from KHFJ Reporting Station
Clear Clear  
Wind Chill: 64°   Ceiling: Unl
Heat Index: 64°   Visibility: 10mi
Dew Point: 46°   Wind: 18mph
Humidity: 52%   Direction: 260°W
Pressure: 30.02"   Gusts: 23mph
Location:  37.14°N, 94.06°W
Report Text: KHFJ 301855Z AUTO 26016G20KT 10SM CLR 18/08 A3002 RMK AO2
Loading
Personal Weather Stations






























Interactive Weather Map
Tropical Storm Tracking
New forecast layout! Learn more

10-Day Weather Forecast

Advertisements
Track Severe Weather on mobile